createdAt,value
2022-10-19T00:00:38.000Z,7.63
2022-10-19T00:01:38.000Z,7.67
2022-10-19T00:02:38.000Z,7.62
2022-10-19T00:03:38.000Z,7.63
2022-10-19T00:04:38.000Z,7.62
2022-10-19T00:05:39.000Z,7.59
2022-10-19T00:06:39.000Z,7.60
2022-10-19T00:07:39.000Z,7.62
2022-10-19T00:08:39.000Z,7.66
2022-10-19T00:09:39.000Z,7.67
2022-10-19T00:10:39.000Z,7.62
2022-10-19T00:11:39.000Z,7.63
2022-10-19T00:12:39.000Z,7.63
2022-10-19T00:13:39.000Z,7.69
2022-10-19T00:14:39.000Z,7.69
2022-10-19T00:15:39.000Z,7.71
2022-10-19T00:16:39.000Z,7.71
2022-10-19T00:17:39.000Z,7.71
2022-10-19T00:18:39.000Z,7.72
2022-10-19T00:19:39.000Z,7.75
2022-10-19T00:20:39.000Z,7.72
2022-10-19T00:21:39.000Z,7.71
2022-10-19T00:22:39.000Z,7.69
2022-10-19T00:23:39.000Z,7.67
2022-10-19T00:24:39.000Z,7.69
2022-10-19T00:25:39.000Z,7.72
2022-10-19T00:26:39.000Z,7.75
2022-10-19T00:27:39.000Z,7.75
2022-10-19T00:28:39.000Z,7.72
2022-10-19T00:29:39.000Z,7.72
2022-10-19T00:30:39.000Z,7.71
2022-10-19T00:31:39.000Z,7.67
2022-10-19T00:32:39.000Z,7.62
2022-10-19T00:33:39.000Z,7.59
2022-10-19T00:34:39.000Z,7.55
2022-10-19T00:35:39.000Z,7.49
2022-10-19T00:36:39.000Z,7.41
2022-10-19T00:37:39.000Z,7.35
2022-10-19T00:38:39.000Z,7.34
2022-10-19T00:39:39.000Z,7.29
2022-10-19T00:40:40.000Z,7.29
2022-10-19T00:41:40.000Z,7.22
2022-10-19T00:42:40.000Z,7.23
2022-10-19T00:43:40.000Z,7.22
2022-10-19T00:44:40.000Z,7.19
2022-10-19T00:45:40.000Z,7.16
2022-10-19T00:46:40.000Z,7.16
2022-10-19T00:47:40.000Z,7.16
2022-10-19T00:48:40.000Z,7.09
2022-10-19T00:49:40.000Z,7.15
2022-10-19T00:50:40.000Z,7.16
2022-10-19T00:51:40.000Z,7.13
2022-10-19T00:52:40.000Z,7.16
2022-10-19T00:53:40.000Z,7.20
2022-10-19T00:54:40.000Z,7.20
2022-10-19T00:55:40.000Z,7.22
2022-10-19T00:56:40.000Z,7.23
2022-10-19T00:57:40.000Z,7.26
2022-10-19T00:58:40.000Z,7.29
2022-10-19T00:59:40.000Z,7.29
2022-10-19T01:00:40.000Z,7.24
2022-10-19T01:01:40.000Z,7.29
2022-10-19T01:02:40.000Z,7.26
2022-10-19T01:03:40.000Z,7.29
2022-10-19T01:04:40.000Z,7.26
2022-10-19T01:05:40.000Z,7.29
2022-10-19T01:06:40.000Z,7.26
2022-10-19T01:07:40.000Z,7.29
2022-10-19T01:08:40.000Z,7.24
2022-10-19T01:09:40.000Z,7.20
2022-10-19T01:10:40.000Z,7.13
2022-10-19T01:11:40.000Z,7.09
2022-10-19T01:12:41.000Z,7.08
2022-10-19T01:13:41.000Z,7.07
2022-10-19T01:14:41.000Z,7.04
2022-10-19T01:15:41.000Z,7.09
2022-10-19T01:16:41.000Z,7.15
2022-10-19T01:17:41.000Z,7.15
2022-10-19T01:18:41.000Z,7.17
2022-10-19T01:19:41.000Z,7.22
2022-10-19T01:20:41.000Z,7.22
2022-10-19T01:21:41.000Z,7.23
2022-10-19T01:22:41.000Z,7.32
2022-10-19T01:23:41.000Z,7.41
2022-10-19T01:24:41.000Z,7.42
2022-10-19T01:25:41.000Z,7.44
2022-10-19T01:26:41.000Z,7.50
2022-10-19T01:27:41.000Z,7.49
2022-10-19T01:28:41.000Z,7.52
2022-10-19T01:29:41.000Z,7.58
2022-10-19T01:30:41.000Z,7.56
2022-10-19T01:31:41.000Z,7.56
2022-10-19T01:32:41.000Z,7.63
2022-10-19T01:33:41.000Z,7.63
2022-10-19T01:34:41.000Z,7.67
2022-10-19T01:35:41.000Z,7.67
2022-10-19T01:36:41.000Z,7.67
2022-10-19T01:37:41.000Z,7.72
2022-10-19T01:38:41.000Z,7.71
2022-10-19T01:39:41.000Z,7.78
2022-10-19T01:40:41.000Z,7.75
2022-10-19T01:41:41.000Z,7.78
2022-10-19T01:42:41.000Z,7.78
2022-10-19T01:43:41.000Z,7.84
2022-10-19T01:44:42.000Z,7.81
2022-10-19T01:45:42.000Z,7.84
2022-10-19T01:46:42.000Z,7.90
2022-10-19T01:47:42.000Z,7.97
2022-10-19T01:48:42.000Z,7.97
2022-10-19T01:49:42.000Z,7.99
2022-10-19T01:50:42.000Z,7.96
2022-10-19T01:51:42.000Z,7.97
2022-10-19T01:52:42.000Z,8.04
2022-10-19T01:53:42.000Z,8.04
2022-10-19T01:54:42.000Z,8.08
2022-10-19T01:55:42.000Z,8.08
2022-10-19T01:56:42.000Z,8.14
2022-10-19T01:57:42.000Z,8.10
2022-10-19T01:58:42.000Z,8.17
2022-10-19T01:59:42.000Z,8.20
2022-10-19T02:00:42.000Z,8.20
2022-10-19T02:01:42.000Z,8.20
2022-10-19T02:02:42.000Z,8.22
2022-10-19T02:03:42.000Z,8.20
2022-10-19T02:04:42.000Z,8.29
2022-10-19T02:05:42.000Z,8.30
2022-10-19T02:06:42.000Z,8.33
2022-10-19T02:07:42.000Z,8.39
2022-10-19T02:08:42.000Z,8.42
2022-10-19T02:09:42.000Z,8.48
2022-10-19T02:10:42.000Z,8.50
2022-10-19T02:11:42.000Z,8.51
2022-10-19T02:12:42.000Z,8.51
2022-10-19T02:13:42.000Z,8.50
2022-10-19T02:14:42.000Z,8.50
2022-10-19T02:15:42.000Z,8.50
2022-10-19T02:16:42.000Z,8.51
2022-10-19T02:17:42.000Z,8.48
2022-10-19T02:18:42.000Z,8.51
2022-10-19T02:19:42.000Z,8.51
2022-10-19T02:20:42.000Z,8.53
2022-10-19T02:21:43.000Z,8.54
2022-10-19T02:22:43.000Z,8.54
2022-10-19T02:23:43.000Z,8.62
2022-10-19T02:24:43.000Z,8.68
2022-10-19T02:25:43.000Z,8.62
2022-10-19T02:26:43.000Z,8.73
2022-10-19T02:27:43.000Z,8.72
2022-10-19T02:28:43.000Z,8.81
2022-10-19T02:29:43.000Z,8.78
2022-10-19T02:30:43.000Z,8.76
2022-10-19T02:31:43.000Z,8.75
2022-10-19T02:32:43.000Z,8.78
2022-10-19T02:33:43.000Z,8.75
2022-10-19T02:34:43.000Z,8.76
2022-10-19T02:35:43.000Z,8.73
2022-10-19T02:36:43.000Z,8.73
2022-10-19T02:37:43.000Z,8.68
2022-10-19T02:38:43.000Z,8.66
2022-10-19T02:39:43.000Z,8.63
2022-10-19T02:40:43.000Z,8.58
2022-10-19T02:41:43.000Z,8.60
2022-10-19T02:42:43.000Z,8.53
2022-10-19T02:43:43.000Z,8.50
2022-10-19T02:44:43.000Z,8.45
2022-10-19T02:45:43.000Z,8.42
2022-10-19T02:46:43.000Z,8.44
2022-10-19T02:47:43.000Z,8.39
2022-10-19T02:48:43.000Z,8.37
2022-10-19T02:49:43.000Z,8.37
2022-10-19T02:50:43.000Z,8.33
2022-10-19T02:51:43.000Z,8.33
2022-10-19T02:52:43.000Z,8.29
2022-10-19T02:53:43.000Z,8.30
2022-10-19T02:54:43.000Z,8.28
2022-10-19T02:55:43.000Z,8.28
2022-10-19T02:56:43.000Z,8.29
2022-10-19T02:57:43.000Z,8.26
2022-10-19T02:58:44.000Z,8.30
2022-10-19T02:59:44.000Z,8.33
2022-10-19T03:00:44.000Z,8.32
2022-10-19T03:01:44.000Z,8.36
2022-10-19T03:02:44.000Z,8.36
2022-10-19T03:03:44.000Z,8.32
2022-10-19T03:04:44.000Z,8.30
2022-10-19T03:05:44.000Z,8.26
2022-10-19T03:06:44.000Z,8.26
2022-10-19T03:07:44.000Z,8.21
2022-10-19T03:08:44.000Z,8.18
2022-10-19T03:09:44.000Z,8.18
2022-10-19T03:10:44.000Z,8.15
2022-10-19T03:11:44.000Z,8.18
2022-10-19T03:12:44.000Z,8.14
2022-10-19T03:13:44.000Z,8.07
2022-10-19T03:14:44.000Z,8.03
2022-10-19T03:15:44.000Z,8.07
2022-10-19T03:16:44.000Z,8.02
2022-10-19T03:17:44.000Z,8.02
2022-10-19T03:18:44.000Z,8.00
2022-10-19T03:19:44.000Z,7.96
2022-10-19T03:20:44.000Z,7.96
2022-10-19T03:21:44.000Z,7.94
2022-10-19T03:22:44.000Z,7.94
2022-10-19T03:23:44.000Z,7.92
2022-10-19T03:24:44.000Z,7.92
2022-10-19T03:25:44.000Z,7.89
2022-10-19T03:26:44.000Z,7.93
2022-10-19T03:27:44.000Z,7.89
2022-10-19T03:28:44.000Z,7.85
2022-10-19T03:29:44.000Z,7.89
2022-10-19T03:30:44.000Z,7.90
2022-10-19T03:31:45.000Z,7.89
2022-10-19T03:32:45.000Z,7.93
2022-10-19T03:33:45.000Z,7.93
2022-10-19T03:34:45.000Z,8.00
2022-10-19T03:35:45.000Z,8.02
2022-10-19T03:36:45.000Z,8.11
2022-10-19T03:37:45.000Z,8.17
2022-10-19T03:38:45.000Z,8.18
2022-10-19T03:39:45.000Z,8.21
2022-10-19T03:40:45.000Z,8.20
2022-10-19T03:41:45.000Z,8.20
2022-10-19T03:42:45.000Z,8.20
2022-10-19T03:43:45.000Z,8.20
2022-10-19T03:44:45.000Z,8.22
2022-10-19T03:45:45.000Z,8.25
2022-10-19T03:46:45.000Z,8.29
2022-10-19T03:47:45.000Z,8.25
2022-10-19T03:48:45.000Z,8.29
2022-10-19T03:49:45.000Z,8.28
2022-10-19T03:50:45.000Z,8.32
2022-10-19T03:51:45.000Z,8.25
2022-10-19T03:52:45.000Z,8.29
2022-10-19T03:53:45.000Z,8.21
2022-10-19T03:54:45.000Z,8.17
2022-10-19T03:55:45.000Z,8.12
2022-10-19T03:56:45.000Z,8.08
2022-10-19T03:57:45.000Z,8.03
2022-10-19T03:58:45.000Z,8.00
2022-10-19T03:59:45.000Z,7.99
2022-10-19T04:00:45.000Z,7.99
2022-10-19T04:01:45.000Z,7.97
2022-10-19T04:02:45.000Z,7.90
2022-10-19T04:03:45.000Z,7.87
2022-10-19T04:04:46.000Z,7.84
2022-10-19T04:05:46.000Z,7.87
2022-10-19T04:06:46.000Z,7.81
2022-10-19T04:07:46.000Z,7.78
2022-10-19T04:08:46.000Z,7.75
2022-10-19T04:09:46.000Z,7.81
2022-10-19T04:10:46.000Z,7.79
2022-10-19T04:11:46.000Z,7.87
2022-10-19T04:12:46.000Z,7.85
2022-10-19T04:13:46.000Z,7.89
2022-10-19T04:14:46.000Z,7.94
2022-10-19T04:15:46.000Z,7.96
2022-10-19T04:16:46.000Z,7.97
2022-10-19T04:17:46.000Z,7.97
2022-10-19T04:18:46.000Z,8.00
2022-10-19T04:19:46.000Z,7.90
2022-10-19T04:20:46.000Z,7.92
2022-10-19T04:21:46.000Z,7.92
2022-10-19T04:29:04.000Z,7.97
2022-10-19T04:29:04.000Z,7.99
2022-10-19T04:30:04.000Z,7.93
2022-10-19T04:31:04.000Z,7.92
2022-10-19T04:32:04.000Z,7.90
2022-10-19T04:33:04.000Z,7.85
2022-10-19T04:34:04.000Z,7.82
2022-10-19T04:35:04.000Z,7.82
2022-10-19T04:36:04.000Z,7.81
2022-10-19T04:37:04.000Z,7.79
2022-10-19T04:38:04.000Z,7.75
2022-10-19T04:39:04.000Z,7.81
2022-10-19T04:40:04.000Z,7.79
2022-10-19T04:41:04.000Z,7.78
2022-10-19T04:42:04.000Z,7.78
2022-10-19T04:43:04.000Z,7.81
2022-10-19T04:44:04.000Z,7.79
2022-10-19T04:45:04.000Z,7.84
2022-10-19T04:46:04.000Z,7.85
2022-10-19T04:47:04.000Z,7.85
2022-10-19T04:48:04.000Z,7.84
2022-10-19T04:49:04.000Z,7.82
2022-10-19T04:50:04.000Z,7.84
2022-10-19T04:51:04.000Z,7.78
2022-10-19T04:52:04.000Z,7.84
2022-10-19T04:53:04.000Z,7.78
2022-10-19T04:54:04.000Z,7.75
2022-10-19T04:55:04.000Z,7.72
2022-10-19T04:56:04.000Z,7.74
2022-10-19T04:57:04.000Z,7.72
2022-10-19T04:58:04.000Z,7.69
2022-10-19T04:59:04.000Z,7.63
2022-10-19T05:00:04.000Z,7.66
2022-10-19T05:01:04.000Z,7.66
2022-10-19T05:02:04.000Z,7.63
2022-10-19T05:03:04.000Z,7.66
2022-10-19T05:04:04.000Z,7.56
2022-10-19T05:05:04.000Z,7.53
2022-10-19T05:06:04.000Z,7.50
2022-10-19T05:07:04.000Z,7.50
2022-10-19T05:08:04.000Z,7.52
2022-10-19T05:09:04.000Z,7.47
2022-10-19T05:10:04.000Z,7.47
2022-10-19T05:11:04.000Z,7.45
2022-10-19T05:12:04.000Z,7.42
2022-10-19T05:13:04.000Z,7.38
2022-10-19T05:14:04.000Z,7.40
2022-10-19T05:15:04.000Z,7.38
2022-10-19T05:16:04.000Z,7.38
2022-10-19T05:17:04.000Z,7.37
2022-10-19T05:18:04.000Z,7.38
2022-10-19T05:19:04.000Z,7.40
2022-10-19T05:20:04.000Z,7.40
2022-10-19T05:21:05.000Z,7.41
2022-10-19T05:22:05.000Z,7.40
2022-10-19T05:23:05.000Z,7.42
2022-10-19T05:24:05.000Z,7.45
2022-10-19T05:25:05.000Z,7.49
2022-10-19T05:26:05.000Z,7.50
2022-10-19T05:27:05.000Z,7.49
2022-10-19T05:28:05.000Z,7.53
2022-10-19T05:29:05.000Z,7.45
2022-10-19T05:30:05.000Z,7.52
2022-10-19T05:31:05.000Z,7.55
2022-10-19T05:32:05.000Z,7.52
2022-10-19T05:33:05.000Z,7.56
2022-10-19T05:34:05.000Z,7.60
2022-10-19T05:35:05.000Z,7.63
2022-10-19T05:36:05.000Z,7.59
2022-10-19T05:37:05.000Z,7.60
2022-10-19T05:38:05.000Z,7.66
2022-10-19T05:39:05.000Z,7.69
2022-10-19T05:40:05.000Z,7.67
2022-10-19T05:41:05.000Z,7.69
2022-10-19T05:42:05.000Z,7.69
2022-10-19T05:43:05.000Z,7.71
2022-10-19T05:44:05.000Z,7.74
2022-10-19T05:45:05.000Z,7.77
2022-10-19T05:46:05.000Z,7.77
2022-10-19T05:47:05.000Z,7.78
2022-10-19T05:48:05.000Z,7.75
2022-10-19T05:49:05.000Z,7.77
2022-10-19T05:50:05.000Z,7.79
2022-10-19T05:51:05.000Z,7.82
2022-10-19T05:52:05.000Z,7.82
2022-10-19T05:53:05.000Z,7.84
2022-10-19T05:54:05.000Z,7.87
2022-10-19T05:55:05.000Z,7.90
2022-10-19T05:56:05.000Z,7.89
2022-10-19T05:57:05.000Z,7.93
2022-10-19T05:58:05.000Z,7.93
2022-10-19T05:59:05.000Z,7.97
2022-10-19T06:00:05.000Z,8.00
2022-10-19T06:01:05.000Z,7.99
2022-10-19T06:02:05.000Z,8.02
2022-10-19T06:03:05.000Z,8.04
2022-10-19T06:04:05.000Z,8.04
2022-10-19T06:05:05.000Z,8.08
2022-10-19T06:06:05.000Z,8.10
2022-10-19T06:07:05.000Z,8.11
2022-10-19T06:08:05.000Z,8.12
2022-10-19T06:09:05.000Z,8.14
2022-10-19T06:10:05.000Z,8.20
2022-10-19T06:11:05.000Z,8.22
2022-10-19T06:12:05.000Z,8.21
2022-10-19T06:13:05.000Z,8.26
2022-10-19T06:14:05.000Z,8.26
2022-10-19T06:15:05.000Z,8.29
2022-10-19T06:16:05.000Z,8.35
2022-10-19T06:17:05.000Z,8.40
2022-10-19T06:18:06.000Z,8.42
2022-10-19T06:19:06.000Z,8.42
2022-10-19T06:20:06.000Z,8.44
2022-10-19T06:21:06.000Z,8.50
2022-10-19T06:22:06.000Z,8.51
2022-10-19T06:23:06.000Z,8.48
2022-10-19T06:24:06.000Z,8.51
2022-10-19T06:25:06.000Z,8.54
2022-10-19T06:26:06.000Z,8.54
2022-10-19T06:27:06.000Z,8.54
2022-10-19T06:28:06.000Z,8.58
2022-10-19T06:29:06.000Z,8.60
2022-10-19T06:30:06.000Z,8.63
2022-10-19T06:31:06.000Z,8.65
2022-10-19T06:32:06.000Z,8.65
2022-10-19T06:33:06.000Z,8.71
2022-10-19T06:34:06.000Z,8.68
2022-10-19T06:35:06.000Z,8.71
2022-10-19T06:36:06.000Z,8.73
2022-10-19T06:37:06.000Z,8.73
2022-10-19T06:38:06.000Z,8.72
2022-10-19T06:39:06.000Z,8.75
2022-10-19T06:40:06.000Z,8.76
2022-10-19T06:41:06.000Z,8.75
2022-10-19T06:42:06.000Z,8.78
2022-10-19T06:43:06.000Z,8.79
2022-10-19T06:44:06.000Z,8.83
2022-10-19T06:45:06.000Z,8.84
2022-10-19T06:46:06.000Z,8.86
2022-10-19T06:47:06.000Z,8.91
2022-10-19T06:48:06.000Z,8.87
2022-10-19T06:49:06.000Z,8.90
2022-10-19T06:50:06.000Z,8.93
2022-10-19T06:51:06.000Z,8.91
2022-10-19T06:52:06.000Z,8.93
2022-10-19T06:53:06.000Z,8.90
2022-10-19T06:54:06.000Z,8.93
2022-10-19T06:55:06.000Z,8.96
2022-10-19T06:56:06.000Z,8.96
2022-10-19T06:57:06.000Z,9.01
2022-10-19T06:58:06.000Z,9.01
2022-10-19T06:59:06.000Z,9.02
2022-10-19T07:00:06.000Z,9.04
2022-10-19T07:01:06.000Z,9.06
2022-10-19T07:02:06.000Z,9.06
2022-10-19T08:02:19.000Z,10.22
2022-10-19T08:02:19.000Z,10.26
2022-10-19T08:03:19.000Z,10.30
2022-10-19T08:04:19.000Z,10.30
2022-10-19T08:05:19.000Z,10.33
2022-10-19T08:17:54.000Z,10.66
2022-10-19T08:17:54.000Z,10.62
2022-10-19T08:18:54.000Z,10.60
2022-10-19T08:19:54.000Z,10.63
2022-10-19T08:20:54.000Z,10.63
2022-10-19T08:21:54.000Z,10.62
2022-10-19T08:22:54.000Z,10.62
2022-10-19T08:23:54.000Z,10.68
2022-10-19T08:24:54.000Z,10.63
2022-10-19T08:25:54.000Z,10.73
2022-10-19T09:20:49.000Z,11.87
2022-10-19T09:20:49.000Z,11.86
2022-10-19T09:21:49.000Z,11.90
2022-10-19T09:22:49.000Z,11.97
2022-10-19T09:23:49.000Z,11.99
2022-10-19T09:58:33.000Z,12.29
2022-10-19T09:58:33.000Z,12.30
2022-10-19T09:59:33.000Z,12.34
2022-10-19T10:00:33.000Z,12.41
2022-10-19T10:01:33.000Z,12.33
2022-10-19T10:02:33.000Z,12.34
2022-10-19T10:03:33.000Z,12.37
2022-10-19T10:04:33.000Z,12.34
2022-10-19T10:05:33.000Z,12.30
2022-10-19T10:06:33.000Z,12.31
2022-10-19T10:07:33.000Z,12.26
2022-10-19T10:08:33.000Z,12.19
2022-10-19T10:09:33.000Z,12.15
2022-10-19T10:10:33.000Z,12.16
2022-10-19T10:11:33.000Z,12.13
2022-10-19T10:12:33.000Z,12.15
2022-10-19T10:13:33.000Z,12.11
2022-10-19T10:14:33.000Z,12.08
2022-10-19T10:15:33.000Z,12.08
2022-10-19T10:16:33.000Z,12.12
2022-10-19T10:17:33.000Z,12.16
2022-10-19T10:18:33.000Z,12.08
2022-10-19T10:19:33.000Z,12.11
2022-10-19T10:20:33.000Z,12.12
2022-10-19T10:21:33.000Z,12.15
2022-10-19T10:22:33.000Z,12.13
2022-10-19T10:23:33.000Z,12.20
2022-10-19T10:24:33.000Z,12.20
2022-10-19T10:25:33.000Z,12.21
2022-10-19T10:32:51.000Z,12.19
2022-10-19T10:32:51.000Z,12.20
2022-10-19T10:33:51.000Z,12.20
2022-10-19T10:34:51.000Z,12.26
2022-10-19T10:35:51.000Z,12.26
2022-10-19T12:44:32.000Z,11.77
2022-10-19T12:44:32.000Z,11.78
2022-10-19T12:45:32.000Z,11.77
2022-10-19T12:46:32.000Z,11.77
2022-10-19T12:47:32.000Z,11.77
2022-10-19T12:54:50.000Z,11.86
2022-10-19T12:54:50.000Z,11.87
2022-10-19T12:55:50.000Z,11.90
2022-10-19T12:56:50.000Z,11.89
2022-10-19T12:57:50.000Z,11.89
2022-10-19T13:47:27.000Z,11.85
2022-10-19T13:47:27.000Z,11.86
2022-10-19T13:48:27.000Z,11.90
2022-10-19T13:49:27.000Z,11.90
2022-10-19T13:50:27.000Z,11.93
2022-10-19T14:18:54.000Z,11.72
2022-10-19T14:18:54.000Z,11.72
2022-10-19T14:19:54.000Z,11.67
2022-10-19T14:20:54.000Z,11.65
2022-10-19T14:21:54.000Z,11.61
2022-10-19T14:22:54.000Z,11.61
2022-10-19T14:23:54.000Z,11.57
2022-10-19T14:24:54.000Z,11.62
2022-10-19T14:25:54.000Z,11.61
2022-10-19T14:26:54.000Z,11.57
2022-10-19T14:27:54.000Z,11.57
2022-10-19T14:28:54.000Z,11.57
2022-10-19T14:29:54.000Z,11.57
2022-10-19T14:30:54.000Z,11.57
2022-10-19T14:31:54.000Z,11.56
2022-10-19T14:32:54.000Z,11.53
2022-10-19T14:33:54.000Z,11.50
2022-10-19T14:34:54.000Z,11.49
2022-10-19T14:35:54.000Z,11.46
2022-10-19T14:36:54.000Z,11.47
2022-10-19T14:37:54.000Z,11.46
2022-10-19T14:38:54.000Z,11.49
2022-10-19T14:39:54.000Z,11.44
2022-10-19T14:40:54.000Z,11.44
2022-10-19T14:41:54.000Z,11.46
2022-10-19T14:42:54.000Z,11.43
2022-10-19T14:43:54.000Z,11.44
2022-10-19T14:44:54.000Z,11.43
2022-10-19T14:45:54.000Z,11.43
2022-10-19T14:46:54.000Z,11.41
2022-10-19T14:47:54.000Z,11.38
2022-10-19T14:48:54.000Z,11.41
2022-10-19T14:49:54.000Z,11.36
2022-10-19T14:50:54.000Z,11.32
2022-10-19T14:51:54.000Z,11.34
2022-10-19T14:52:54.000Z,11.34
2022-10-19T14:53:54.000Z,11.38
2022-10-19T14:54:54.000Z,11.38
2022-10-19T14:55:54.000Z,11.38
2022-10-19T14:56:54.000Z,11.31
2022-10-19T14:57:54.000Z,11.32
2022-10-19T14:58:54.000Z,11.25
2022-10-19T14:59:53.000Z,11.28
2022-10-19T15:00:53.000Z,11.27
2022-10-19T15:01:53.000Z,11.28
2022-10-19T15:02:53.000Z,11.29
2022-10-19T15:03:53.000Z,11.32
2022-10-19T15:04:53.000Z,11.27
2022-10-19T15:05:53.000Z,11.24
2022-10-19T15:06:53.000Z,11.25
2022-10-19T15:07:53.000Z,11.25
2022-10-19T15:08:53.000Z,11.21
2022-10-19T15:09:53.000Z,11.19
2022-10-19T15:10:53.000Z,11.16
2022-10-19T15:11:53.000Z,11.17
2022-10-19T15:12:53.000Z,11.19
2022-10-19T15:13:53.000Z,11.17
2022-10-19T15:14:53.000Z,11.16
2022-10-19T15:15:53.000Z,11.17
2022-10-19T15:16:53.000Z,11.13
2022-10-19T15:17:53.000Z,11.19
2022-10-19T15:18:53.000Z,11.19
2022-10-19T15:19:53.000Z,11.16
2022-10-19T15:20:53.000Z,11.17
2022-10-19T15:21:53.000Z,11.17
2022-10-19T15:22:53.000Z,11.16
2022-10-19T15:23:53.000Z,11.16
2022-10-19T15:24:53.000Z,11.19
2022-10-19T15:25:53.000Z,11.19
2022-10-19T15:26:53.000Z,11.17
2022-10-19T15:27:53.000Z,11.17
2022-10-19T15:28:53.000Z,11.14
2022-10-19T15:29:53.000Z,11.16
2022-10-19T15:30:53.000Z,11.10
2022-10-19T15:31:53.000Z,11.13
2022-10-19T15:32:53.000Z,11.09
2022-10-19T15:33:53.000Z,11.06
2022-10-19T15:34:53.000Z,11.06
2022-10-19T15:35:53.000Z,11.07
2022-10-19T15:36:53.000Z,11.02
2022-10-19T15:37:53.000Z,10.96
2022-10-19T15:38:53.000Z,11.01
2022-10-19T15:39:53.000Z,10.99
2022-10-19T15:40:53.000Z,10.96
2022-10-19T15:41:53.000Z,10.91
2022-10-19T15:42:53.000Z,10.89
2022-10-19T15:43:53.000Z,10.88
2022-10-19T15:44:53.000Z,10.86
2022-10-19T15:45:53.000Z,10.84
2022-10-19T15:46:53.000Z,10.84
2022-10-19T15:47:53.000Z,10.84
2022-10-19T15:48:53.000Z,10.83
2022-10-19T15:49:53.000Z,10.86
2022-10-19T15:50:53.000Z,10.86
2022-10-19T15:51:53.000Z,10.80
2022-10-19T15:52:53.000Z,10.81
2022-10-19T15:53:53.000Z,10.84
2022-10-19T15:54:53.000Z,10.77
2022-10-19T15:55:53.000Z,10.78
2022-10-19T15:56:53.000Z,10.80
2022-10-19T15:57:53.000Z,10.77
2022-10-19T15:58:53.000Z,10.76
2022-10-19T15:59:53.000Z,10.76
2022-10-19T16:00:53.000Z,10.65
2022-10-19T16:01:53.000Z,10.70
2022-10-19T16:02:53.000Z,10.68
2022-10-19T16:03:53.000Z,10.68
2022-10-19T16:04:53.000Z,10.66
2022-10-19T16:05:53.000Z,10.62
2022-10-19T16:06:53.000Z,10.63
2022-10-19T16:07:53.000Z,10.55
2022-10-19T16:08:53.000Z,10.55
2022-10-19T16:09:53.000Z,10.52
2022-10-19T16:10:53.000Z,10.51
2022-10-19T16:11:53.000Z,10.47
2022-10-19T16:12:53.000Z,10.47
2022-10-19T16:13:53.000Z,10.43
2022-10-19T16:14:53.000Z,10.44
2022-10-19T16:15:53.000Z,10.42
2022-10-19T16:16:53.000Z,10.43
2022-10-19T16:17:53.000Z,10.44
2022-10-19T16:18:53.000Z,10.43
2022-10-19T16:19:53.000Z,10.44
2022-10-19T16:20:53.000Z,10.43
2022-10-19T16:21:53.000Z,10.39
2022-10-19T16:22:53.000Z,10.39
2022-10-19T16:23:53.000Z,10.33
2022-10-19T16:24:53.000Z,10.32
2022-10-19T16:25:53.000Z,10.26
2022-10-19T16:26:53.000Z,10.26
2022-10-19T16:27:53.000Z,10.25
2022-10-19T16:28:53.000Z,10.19
2022-10-19T16:29:53.000Z,10.18
2022-10-19T16:30:53.000Z,10.19
2022-10-19T16:31:53.000Z,10.19
2022-10-19T16:32:53.000Z,10.17
2022-10-19T16:33:53.000Z,10.12
2022-10-19T16:34:53.000Z,10.10
2022-10-19T16:35:53.000Z,10.09
2022-10-19T16:36:53.000Z,10.07
2022-10-19T16:37:53.000Z,10.06
2022-10-19T16:38:53.000Z,10.06
2022-10-19T16:39:53.000Z,10.01
2022-10-19T16:40:53.000Z,10.00
2022-10-19T16:41:53.000Z,9.93
2022-10-19T16:42:53.000Z,9.94
2022-10-19T16:43:53.000Z,9.89
2022-10-19T16:44:53.000Z,9.86
2022-10-19T16:45:53.000Z,9.85
2022-10-19T16:46:53.000Z,9.79
2022-10-19T16:47:53.000Z,9.71
2022-10-19T16:48:53.000Z,9.68
2022-10-19T16:49:53.000Z,9.67
2022-10-19T16:50:53.000Z,9.63
2022-10-19T16:51:53.000Z,9.58
2022-10-19T16:52:53.000Z,9.56
2022-10-19T16:53:53.000Z,9.50
2022-10-19T16:54:53.000Z,9.45
2022-10-19T16:55:53.000Z,9.38
2022-10-19T16:56:53.000Z,9.38
2022-10-19T16:57:53.000Z,9.30
2022-10-19T16:58:53.000Z,9.28
2022-10-19T16:59:53.000Z,9.20
2022-10-19T17:00:53.000Z,9.16
2022-10-19T17:01:53.000Z,9.09
2022-10-19T17:02:53.000Z,9.05
2022-10-19T17:03:53.000Z,8.99
2022-10-19T17:04:53.000Z,8.96
2022-10-19T17:05:53.000Z,8.94
2022-10-19T17:06:53.000Z,8.87
2022-10-19T17:07:53.000Z,8.84
2022-10-19T17:08:53.000Z,8.75
2022-10-19T17:09:53.000Z,8.68
2022-10-19T17:10:53.000Z,8.69
2022-10-19T17:11:53.000Z,8.62
2022-10-19T17:12:53.000Z,8.60
2022-10-19T17:13:53.000Z,8.53
2022-10-19T17:14:53.000Z,8.48
2022-10-19T17:15:53.000Z,8.45
2022-10-19T17:16:53.000Z,8.40
2022-10-19T17:17:53.000Z,8.37
2022-10-19T17:18:53.000Z,8.32
2022-10-19T17:19:53.000Z,8.28
2022-10-19T17:20:53.000Z,8.21
2022-10-19T17:21:53.000Z,8.15
2022-10-19T17:22:53.000Z,8.10
2022-10-19T17:23:53.000Z,8.03
2022-10-19T17:24:53.000Z,7.99
2022-10-19T17:25:53.000Z,7.96
2022-10-19T17:26:53.000Z,7.97
2022-10-19T17:27:53.000Z,7.92
2022-10-19T17:28:53.000Z,7.87
2022-10-19T17:29:53.000Z,7.87
2022-10-19T17:30:53.000Z,7.81
2022-10-19T17:31:53.000Z,7.79
2022-10-19T17:32:53.000Z,7.82
2022-10-19T17:33:53.000Z,7.77
2022-10-19T17:34:53.000Z,7.77
2022-10-19T17:35:53.000Z,7.69
2022-10-19T17:36:53.000Z,7.71
2022-10-19T17:37:53.000Z,7.60
2022-10-19T17:38:53.000Z,7.58
2022-10-19T17:39:53.000Z,7.56
2022-10-19T17:40:53.000Z,7.49
2022-10-19T17:41:53.000Z,7.37
2022-10-19T17:42:53.000Z,7.35
2022-10-19T17:43:53.000Z,7.32
2022-10-19T17:44:53.000Z,7.26
2022-10-19T17:45:53.000Z,7.23
2022-10-19T17:46:53.000Z,7.22
2022-10-19T17:47:53.000Z,7.19
2022-10-19T17:48:53.000Z,7.15
2022-10-19T17:49:53.000Z,7.15
2022-10-19T17:50:53.000Z,7.09
2022-10-19T17:51:53.000Z,7.07
2022-10-19T17:52:53.000Z,6.99
2022-10-19T17:53:53.000Z,7.02
2022-10-19T17:54:54.000Z,7.01
2022-10-19T17:55:54.000Z,6.97
2022-10-19T17:56:54.000Z,6.97
2022-10-19T17:57:54.000Z,6.90
2022-10-19T17:58:54.000Z,6.89
2022-10-19T17:59:54.000Z,6.84
2022-10-19T18:00:54.000Z,6.83
2022-10-19T18:01:54.000Z,6.83
2022-10-19T18:02:54.000Z,6.81
2022-10-19T18:03:54.000Z,6.77
2022-10-19T18:04:54.000Z,6.77
2022-10-19T18:05:54.000Z,6.76
2022-10-19T18:06:54.000Z,6.72
2022-10-19T18:07:54.000Z,6.72
2022-10-19T18:08:54.000Z,6.69
2022-10-19T18:09:54.000Z,6.69
2022-10-19T18:10:54.000Z,6.69
2022-10-19T18:11:54.000Z,6.62
2022-10-19T18:12:54.000Z,6.61
2022-10-19T18:13:54.000Z,6.59
2022-10-19T18:14:54.000Z,6.53
2022-10-19T18:15:54.000Z,6.48
2022-10-19T18:16:54.000Z,6.46
2022-10-19T18:17:54.000Z,6.41
2022-10-19T18:18:54.000Z,6.40
2022-10-19T18:19:54.000Z,6.40
2022-10-19T18:20:54.000Z,6.35
2022-10-19T18:21:54.000Z,6.35
2022-10-19T18:22:54.000Z,6.28
2022-10-19T18:23:54.000Z,6.32
2022-10-19T18:24:55.000Z,6.22
2022-10-19T18:25:55.000Z,6.22
2022-10-19T18:26:55.000Z,6.19
2022-10-19T18:27:55.000Z,6.14
2022-10-19T18:28:55.000Z,6.13
2022-10-19T18:29:55.000Z,6.06
2022-10-19T18:30:55.000Z,6.04
2022-10-19T18:31:55.000Z,5.98
2022-10-19T18:32:55.000Z,5.93
2022-10-19T18:33:55.000Z,5.92
2022-10-19T18:34:55.000Z,5.89
2022-10-19T18:35:55.000Z,5.82
2022-10-19T18:36:55.000Z,5.78
2022-10-19T18:37:55.000Z,5.73
2022-10-19T18:38:55.000Z,5.70
2022-10-19T18:39:55.000Z,5.68
2022-10-19T18:40:55.000Z,5.67
2022-10-19T18:41:55.000Z,5.60
2022-10-19T18:42:55.000Z,5.60
2022-10-19T18:43:55.000Z,5.57
2022-10-19T18:44:55.000Z,5.57
2022-10-19T18:45:55.000Z,5.56
2022-10-19T18:46:55.000Z,5.53
2022-10-19T18:47:55.000Z,5.53
2022-10-19T18:48:55.000Z,5.49
2022-10-19T18:49:56.000Z,5.50
2022-10-19T18:50:56.000Z,5.46
2022-10-19T18:51:56.000Z,5.48
2022-10-19T18:52:56.000Z,5.50
2022-10-19T18:53:56.000Z,5.50
2022-10-19T18:54:56.000Z,5.50
2022-10-19T18:55:56.000Z,5.48
2022-10-19T18:56:56.000Z,5.48
2022-10-19T18:57:56.000Z,5.48
2022-10-19T18:58:56.000Z,5.41
2022-10-19T18:59:56.000Z,5.49
2022-10-19T19:00:56.000Z,5.46
2022-10-19T19:01:56.000Z,5.46
2022-10-19T19:02:56.000Z,5.46
2022-10-19T19:03:56.000Z,5.43
2022-10-19T19:04:56.000Z,5.43
2022-10-19T19:05:56.000Z,5.41
2022-10-19T19:06:56.000Z,5.41
2022-10-19T19:07:56.000Z,5.45
2022-10-19T19:08:56.000Z,5.40
2022-10-19T19:09:56.000Z,5.32
2022-10-19T19:10:56.000Z,5.32
2022-10-19T19:11:57.000Z,5.32
2022-10-19T19:12:57.000Z,5.28
2022-10-19T19:13:57.000Z,5.25
2022-10-19T19:14:57.000Z,5.25
2022-10-19T19:15:57.000Z,5.22
2022-10-19T19:16:57.000Z,5.19
2022-10-19T19:17:57.000Z,5.19
2022-10-19T19:18:57.000Z,5.20
2022-10-19T19:19:57.000Z,5.16
2022-10-19T19:20:57.000Z,5.14
2022-10-19T19:21:57.000Z,5.12
2022-10-19T19:22:57.000Z,5.10